Time;durP1;ratioP1;P1;durP2;ratioP2;P2;SDS_P1;SDS_P2;PMS_P1;PMS_P2;Temp;Humidity;BMP_temperature;BMP_pressure;BME280_temperature;BME280_humidity;BME280_pressure;Samples;Min_cycle;Max_cycle;Signal;HPM_P1;HPM_P2
2021/12/29 00:00:23;;;;;;;21.93;14.27;;;3.00;99.90;;;;;;5112401;28;20496;-82
2021/12/29 00:02:49;;;;;;;22.93;14.13;;;3.00;99.90;;;;;;5111247;28;20508;-81
2021/12/29 00:05:15;;;;;;;20.67;12.03;;;3.00;99.90;;;;;;5113253;28;21176;-82
2021/12/29 00:07:40;;;;;;;22.20;13.17;;;3.00;99.90;;;;;;5113004;28;20438;-83
2021/12/29 00:10:07;;;;;;;23.80;15.07;;;2.90;99.90;;;;;;5112660;28;20179;-83
2021/12/29 00:12:40;;;;;;;20.83;13.47;;;3.00;99.90;;;;;;5114291;28;20278;-82
2021/12/29 00:15:06;;;;;;;21.60;13.13;;;3.00;99.90;;;;;;5096118;28;20433;-82
2021/12/29 00:17:32;;;;;;;18.60;12.93;;;2.90;99.90;;;;;;5114257;28;20474;-82
2021/12/29 00:19:57;;;;;;;22.27;13.10;;;3.00;99.90;;;;;;5114118;28;20937;-82
2021/12/29 00:22:23;;;;;;;17.10;12.60;;;3.00;99.90;;;;;;5114176;28;20175;-82
2021/12/29 00:24:48;;;;;;;20.57;12.80;;;3.00;99.90;;;;;;5095113;28;20232;-82
2021/12/29 00:27:14;;;;;;;20.47;12.87;;;2.90;99.90;;;;;;5114037;28;20268;-82
2021/12/29 00:29:40;;;;;;;16.53;11.80;;;2.90;99.90;;;;;;5114086;28;20207;-82
2021/12/29 00:32:06;;;;;;;20.67;13.10;;;2.90;99.90;;;;;;5113986;28;20251;-82
2021/12/29 00:34:32;;;;;;;18.47;12.50;;;2.90;99.90;;;;;;5109239;28;21026;-82
2021/12/29 00:36:57;;;;;;;20.73;13.67;;;3.00;99.90;;;;;;5093501;28;20403;-82
2021/12/29 00:39:23;;;;;;;18.80;11.97;;;3.00;99.90;;;;;;5093238;28;20220;-82
2021/12/29 00:41:50;;;;;;;18.63;11.43;;;3.00;99.90;;;;;;5093022;28;20254;-82
2021/12/29 00:44:15;;;;;;;20.00;11.50;;;3.00;99.90;;;;;;5097540;28;20937;-83
2021/12/29 00:46:41;;;;;;;19.87;12.70;;;3.00;99.90;;;;;;5093369;28;20579;-83
2021/12/29 00:49:08;;;;;;;20.17;11.60;;;3.00;99.90;;;;;;5093181;28;20260;-83
2021/12/29 00:51:34;;;;;;;19.83;13.17;;;3.00;99.90;;;;;;5093356;28;20160;-82
2021/12/29 00:54:00;;;;;;;20.87;12.90;;;3.00;99.90;;;;;;5093273;28;20907;-82
2021/12/29 00:56:25;;;;;;;21.10;12.50;;;3.00;99.90;;;;;;5092868;28;20257;-83
2021/12/29 00:58:51;;;;;;;20.97;12.30;;;3.00;99.90;;;;;;5093199;28;20179;-82
2021/12/29 01:01:17;;;;;;;20.27;12.67;;;2.90;99.90;;;;;;5093165;28;20218;-83
2021/12/29 01:03:43;;;;;;;22.10;13.13;;;3.00;99.90;;;;;;5093149;28;20169;-82
2021/12/29 01:06:09;;;;;;;19.83;12.20;;;3.00;99.90;;;;;;5093072;28;20413;-83
2021/12/29 01:08:35;;;;;;;17.13;12.10;;;2.90;99.90;;;;;;5093094;28;20178;-82
2021/12/29 01:11:02;;;;;;;19.00;12.17;;;3.00;99.90;;;;;;5092790;28;20423;-82
2021/12/29 01:13:32;;;;;;;18.90;10.50;;;3.00;99.90;;;;;;5101073;28;20175;-82
2021/12/29 01:18:32;;;;;;;19.07;11.90;;;3.00;99.90;;;;;;5113521;28;20412;-83
2021/12/29 01:20:57;;;;;;;19.33;13.40;;;3.00;99.90;;;;;;5098561;28;20974;-83
2021/12/29 01:23:24;;;;;;;21.63;12.47;;;3.00;99.90;;;;;;5093032;28;20417;-83
2021/12/29 01:25:49;;;;;;;16.00;11.63;;;3.00;99.90;;;;;;5096197;28;20636;-83
2021/12/29 01:28:15;;;;;;;17.47;11.67;;;3.10;99.90;;;;;;5097177;28;20426;-83
2021/12/29 01:30:41;;;;;;;18.10;12.50;;;3.00;99.90;;;;;;5097054;28;20512;-83
2021/12/29 01:33:06;;;;;;;14.63;11.30;;;3.00;99.90;;;;;;5113058;28;20185;-83
2021/12/29 01:35:33;;;;;;;18.00;11.60;;;3.00;99.90;;;;;;5117442;28;20651;-83
2021/12/29 01:38:00;;;;;;;18.13;12.93;;;3.00;99.90;;;;;;5117231;28;20215;-83
2021/12/29 01:40:27;;;;;;;16.20;10.87;;;3.00;99.90;;;;;;5111208;28;20489;-83
2021/12/29 01:42:52;;;;;;;19.00;12.47;;;3.00;99.90;;;;;;5096929;28;20406;-83
2021/12/29 01:45:18;;;;;;;15.33;11.37;;;2.90;99.90;;;;;;5096840;28;20510;-83
2021/12/29 01:47:44;;;;;;;16.73;12.07;;;2.90;99.90;;;;;;5096774;28;20177;-83
2021/12/29 01:50:11;;;;;;;18.57;11.27;;;2.90;99.90;;;;;;5096726;28;20706;-83
2021/12/29 01:52:39;;;;;;;20.17;10.43;;;3.00;99.90;;;;;;5096758;28;20200;-83
2021/12/29 01:55:12;;;;;;;20.33;12.70;;;3.00;99.90;;;;;;5096295;28;20442;-83
2021/12/29 01:57:39;;;;;;;19.87;11.50;;;2.90;99.90;;;;;;5096543;28;20914;-83
2021/12/29 02:00:09;;;;;;;18.60;12.67;;;3.00;99.90;;;;;;5096399;28;20446;-83
2021/12/29 02:02:35;;;;;;;22.20;12.47;;;2.90;99.90;;;;;;5096515;28;20412;-83
2021/12/29 02:05:00;;;;;;;19.70;12.53;;;2.90;99.90;;;;;;5078321;28;20422;-83
2021/12/29 02:07:26;;;;;;;24.07;13.97;;;2.90;99.90;;;;;;5096425;28;20164;-83
2021/12/29 02:09:52;;;;;;;23.87;12.80;;;2.80;99.90;;;;;;5111947;28;20179;-82
2021/12/29 02:12:18;;;;;;;18.83;12.40;;;2.90;99.90;;;;;;5125231;28;20179;-83
2021/12/29 02:14:43;;;;;;;21.23;13.60;;;2.90;99.90;;;;;;5093704;28;20545;-83
2021/12/29 02:17:12;;;;;;;22.57;13.63;;;2.80;99.90;;;;;;5078205;28;20183;-83
2021/12/29 02:19:44;;;;;;;24.07;13.87;;;2.90;99.90;;;;;;5096316;28;20172;-83
2021/12/29 02:22:20;;;;;;;17.30;10.90;;;2.90;99.90;;;;;;5096348;28;20775;-83
2021/12/29 02:24:53;;;;;;;24.43;13.30;;;2.90;99.90;;;;;;5100877;28;20494;-83
2021/12/29 02:27:19;;;;;;;20.33;11.97;;;2.80;99.90;;;;;;5096328;28;20919;-83
2021/12/29 02:29:47;;;;;;;21.97;11.10;;;2.90;99.90;;;;;;5095959;28;20407;-83
2021/12/29 02:32:13;;;;;;;22.47;11.67;;;2.90;99.90;;;;;;5095865;28;20413;-83
2021/12/29 02:34:39;;;;;;;26.23;13.97;;;2.80;99.90;;;;;;5095862;28;20410;-83
2021/12/29 02:37:04;;;;;;;23.40;11.90;;;2.80;99.90;;;;;;5094366;28;20471;-83
2021/12/29 02:39:32;;;;;;;21.40;12.30;;;2.80;99.90;;;;;;5095439;28;20177;-83
2021/12/29 02:42:03;;;;;;;19.17;11.37;;;2.80;99.90;;;;;;5095621;28;20249;-83
2021/12/29 02:44:30;;;;;;;26.30;13.93;;;2.80;99.90;;;;;;5095683;28;20908;-83
2021/12/29 02:46:57;;;;;;;21.67;12.03;;;2.80;99.90;;;;;;5095582;28;20411;-83
2021/12/29 02:49:25;;;;;;;18.90;11.67;;;2.80;99.90;;;;;;5109671;28;20421;-83
2021/12/29 02:51:52;;;;;;;20.50;12.33;;;2.80;99.90;;;;;;5115994;28;20405;-83
2021/12/29 02:54:18;;;;;;;25.70;13.20;;;2.70;99.90;;;;;;5115642;28;20481;-83
2021/12/29 02:56:48;;;;;;;22.20;13.40;;;2.70;99.90;;;;;;5115958;28;20518;-83
2021/12/29 02:59:15;;;;;;;18.90;10.73;;;2.70;99.90;;;;;;5115844;28;20921;-83
2021/12/29 03:01:41;;;;;;;22.67;12.13;;;2.80;99.90;;;;;;5115712;28;20861;-83
2021/12/29 03:04:07;;;;;;;19.40;11.27;;;2.70;99.90;;;;;;5115738;28;20441;-83
2021/12/29 03:06:34;;;;;;;21.07;11.77;;;2.70;99.90;;;;;;5115696;28;20944;-83
2021/12/29 03:09:00;;;;;;;26.43;13.70;;;2.80;99.90;;;;;;5115519;28;20168;-83
2021/12/29 03:11:25;;;;;;;24.77;12.13;;;2.70;99.90;;;;;;5115095;28;20440;-83
2021/12/29 03:13:51;;;;;;;25.07;12.73;;;2.70;99.90;;;;;;5112820;28;20779;-83
2021/12/29 03:16:17;;;;;;;20.80;13.80;;;2.80;99.90;;;;;;5097966;28;20187;-83
2021/12/29 03:18:43;;;;;;;21.13;12.43;;;2.70;99.90;;;;;;5107635;28;20281;-83
2021/12/29 03:21:10;;;;;;;27.37;12.50;;;2.80;99.90;;;;;;5115267;28;20211;-83
2021/12/29 03:23:36;;;;;;;22.07;12.30;;;2.70;99.90;;;;;;5112147;28;20183;-83
2021/12/29 03:26:02;;;;;;;32.60;14.17;;;2.80;99.90;;;;;;5094470;28;20414;-83
2021/12/29 03:28:28;;;;;;;27.63;13.37;;;2.80;99.90;;;;;;5076704;28;20478;-83
2021/12/29 03:30:55;;;;;;;35.90;14.17;;;2.80;99.90;;;;;;5094808;28;20502;-84
2021/12/29 03:33:24;;;;;;;29.77;10.90;;;2.80;99.90;;;;;;5094749;28;20538;-84
2021/12/29 03:35:55;;;;;;;25.30;13.43;;;2.80;99.90;;;;;;5100824;28;20449;-83
2021/12/29 03:38:23;;;;;;;26.07;13.57;;;2.80;99.90;;;;;;5114815;28;20459;-83
2021/12/29 03:40:50;;;;;;;24.57;12.87;;;2.80;99.90;;;;;;5096308;28;20972;-83
2021/12/29 03:43:16;;;;;;;22.97;12.40;;;2.80;99.90;;;;;;5114965;28;20880;-83
2021/12/29 03:45:45;;;;;;;28.47;12.77;;;2.80;99.90;;;;;;5114977;28;20438;-84
2021/12/29 03:48:11;;;;;;;27.90;14.80;;;2.80;99.90;;;;;;5114649;28;20756;-84
2021/12/29 03:50:38;;;;;;;32.97;14.17;;;2.80;99.90;;;;;;5114631;28;20555;-84
2021/12/29 03:53:04;;;;;;;26.47;11.47;;;2.80;99.90;;;;;;5114785;28;20420;-84
2021/12/29 03:55:30;;;;;;;33.10;13.43;;;2.70;99.90;;;;;;5111444;28;20428;-84
2021/12/29 03:57:56;;;;;;;31.63;13.70;;;2.70;99.90;;;;;;5094247;28;20410;-84
2021/12/29 04:00:22;;;;;;;23.57;13.00;;;2.70;99.90;;;;;;5094062;28;20508;-84
2021/12/29 04:02:48;;;;;;;26.53;13.20;;;2.70;99.90;;;;;;5076014;28;20663;-84
2021/12/29 04:05:16;;;;;;;34.40;14.53;;;2.70;99.90;;;;;;5094195;28;20403;-84
2021/12/29 04:07:42;;;;;;;25.13;13.60;;;2.70;99.90;;;;;;5076026;28;20168;-83
2021/12/29 04:10:09;;;;;;;24.23;12.07;;;2.70;99.90;;;;;;5109091;28;20470;-83
2021/12/29 04:12:36;;;;;;;28.87;13.40;;;2.70;99.90;;;;;;5114397;28;20214;-83
2021/12/29 04:15:02;;;;;;;22.70;11.80;;;2.70;99.90;;;;;;5099031;28;20853;-83
2021/12/29 04:17:36;;;;;;;28.97;15.30;;;2.60;99.90;;;;;;5095974;28;20425;-83
2021/12/29 04:22:53;;;;;;;28.00;15.90;;;2.70;99.90;;;;;;5113888;28;20430;-82
2021/12/29 04:25:23;;;;;;;25.07;12.70;;;2.80;99.90;;;;;;5094592;28;20418;-83
2021/12/29 04:27:53;;;;;;;26.30;12.63;;;2.80;99.90;;;;;;5075442;28;20436;-82
2021/12/29 04:30:19;;;;;;;28.80;14.80;;;2.70;99.90;;;;;;5092519;28;20406;-83
2021/12/29 04:32:45;;;;;;;26.37;15.00;;;2.80;99.90;;;;;;5092237;28;20407;-82
2021/12/29 04:35:10;;;;;;;28.97;14.90;;;2.70;99.90;;;;;;5107791;28;20428;-82
2021/12/29 04:37:36;;;;;;;27.70;14.23;;;2.70;99.90;;;;;;5113315;28;20458;-82
2021/12/29 04:40:04;;;;;;;28.70;14.33;;;2.70;99.90;;;;;;5113518;28;20176;-82
2021/12/29 04:42:30;;;;;;;26.40;14.50;;;2.70;99.90;;;;;;5113870;28;20462;-82
2021/12/29 04:44:55;;;;;;;30.63;15.97;;;2.70;99.90;;;;;;5113797;28;20941;-83
2021/12/29 04:47:27;;;;;;;31.67;15.57;;;2.70;99.90;;;;;;5113839;28;20175;-82
2021/12/29 04:49:53;;;;;;;30.23;15.30;;;2.70;99.90;;;;;;5095644;28;20332;-82
2021/12/29 04:52:19;;;;;;;25.00;14.47;;;2.70;99.90;;;;;;5103820;28;20975;-82
2021/12/29 04:54:44;;;;;;;33.50;15.17;;;2.80;99.90;;;;;;5092953;28;20164;-82
2021/12/29 04:57:10;;;;;;;23.07;15.27;;;2.80;99.90;;;;;;5093329;28;20620;-83
2021/12/29 04:59:36;;;;;;;32.03;15.20;;;2.70;99.90;;;;;;5092551;28;20168;-82
2021/12/29 05:02:02;;;;;;;25.77;14.40;;;2.70;99.90;;;;;;5093305;28;20469;-83
2021/12/29 05:04:44;;;;;;;23.47;13.53;;;2.80;99.90;;;;;;5093214;28;20192;-82
2021/12/29 05:09:54;;;;;;;30.13;14.97;;;2.80;99.90;;;;;;5093240;28;20799;-83
2021/12/29 05:12:20;;;;;;;29.33;14.70;;;2.80;99.90;;;;;;5093155;28;20513;-83
2021/12/29 05:14:45;;;;;;;32.73;16.10;;;2.80;99.90;;;;;;5102313;28;20180;-82
2021/12/29 05:17:11;;;;;;;27.70;14.60;;;2.80;99.90;;;;;;5109733;28;20627;-83
2021/12/29 05:19:37;;;;;;;29.30;15.27;;;2.80;99.90;;;;;;5113400;28;20238;-83
2021/12/29 05:22:03;;;;;;;30.17;15.50;;;2.70;99.90;;;;;;5113360;28;20732;-83
2021/12/29 05:24:29;;;;;;;20.23;12.83;;;2.60;99.90;;;;;;5093920;28;20263;-83
2021/12/29 05:26:55;;;;;;;25.90;12.53;;;2.70;99.90;;;;;;5093021;28;20841;-83
2021/12/29 05:29:21;;;;;;;22.73;13.13;;;2.70;99.90;;;;;;5093019;28;20168;-83
2021/12/29 05:31:46;;;;;;;25.47;13.80;;;2.70;99.90;;;;;;5079500;28;20433;-83
2021/12/29 05:34:12;;;;;;;25.27;12.63;;;2.80;99.90;;;;;;5113343;28;20175;-83
2021/12/29 05:36:37;;;;;;;25.93;15.13;;;2.80;99.90;;;;;;5113367;28;20190;-83
2021/12/29 05:39:03;;;;;;;21.80;12.87;;;2.80;99.90;;;;;;5112815;28;20224;-83
2021/12/29 05:41:29;;;;;;;25.67;14.23;;;2.80;99.90;;;;;;5113121;28;20290;-83
2021/12/29 05:43:55;;;;;;;28.90;13.80;;;2.80;99.90;;;;;;5094939;28;20171;-83
2021/12/29 05:46:20;;;;;;;25.70;14.47;;;2.80;99.90;;;;;;5095063;28;20184;-83
2021/12/29 05:48:46;;;;;;;25.03;14.30;;;2.80;99.90;;;;;;5113286;28;20172;-84
2021/12/29 05:51:12;;;;;;;27.67;12.50;;;2.90;99.90;;;;;;5113184;28;20176;-83
2021/12/29 05:53:40;;;;;;;25.77;13.00;;;2.80;99.90;;;;;;5113112;28;20424;-83
2021/12/29 05:56:06;;;;;;;32.43;14.60;;;2.80;99.90;;;;;;5112775;28;20425;-83
2021/12/29 05:58:31;;;;;;;27.57;12.87;;;2.70;99.90;;;;;;5093696;28;20429;-82
2021/12/29 06:00:57;;;;;;;31.00;13.23;;;2.80;99.90;;;;;;5075161;28;20660;-82
2021/12/29 06:03:23;;;;;;;26.87;13.40;;;2.80;99.90;;;;;;5092883;28;20168;-82
2021/12/29 06:05:48;;;;;;;22.27;11.53;;;2.90;99.90;;;;;;5092854;28;20604;-82
2021/12/29 06:08:14;;;;;;;23.47;13.33;;;2.90;99.90;;;;;;5092615;28;20266;-82
2021/12/29 06:10:41;;;;;;;22.20;13.30;;;2.90;99.90;;;;;;5075532;28;20175;-82
2021/12/29 06:13:06;;;;;;;25.13;13.67;;;2.80;99.90;;;;;;5078151;28;20222;-82
2021/12/29 06:15:32;;;;;;;27.40;13.13;;;2.80;99.90;;;;;;5100996;28;20983;-82
2021/12/29 06:17:57;;;;;;;22.03;10.63;;;2.90;99.90;;;;;;5096248;28;20252;-82
2021/12/29 06:20:23;;;;;;;23.70;12.90;;;2.80;99.90;;;;;;5096115;28;20284;-82
2021/12/29 06:22:49;;;;;;;21.03;13.33;;;2.80;99.90;;;;;;5077967;28;20282;-82
2021/12/29 06:25:17;;;;;;;23.33;12.97;;;2.80;99.90;;;;;;5100853;28;20184;-82
2021/12/29 06:27:44;;;;;;;21.17;12.67;;;2.90;99.90;;;;;;5096021;28;20190;-83
2021/12/29 06:30:12;;;;;;;26.50;12.97;;;2.90;99.90;;;;;;5096062;28;20404;-83
2021/12/29 06:32:39;;;;;;;28.40;15.77;;;2.90;99.90;;;;;;5095945;28;20509;-84
2021/12/29 06:35:06;;;;;;;25.23;12.07;;;2.90;99.90;;;;;;5095907;28;20414;-83
2021/12/29 06:37:32;;;;;;;28.00;12.50;;;2.90;99.90;;;;;;5095689;28;20446;-83
2021/12/29 06:39:58;;;;;;;29.83;14.20;;;2.90;99.90;;;;;;5095413;28;20415;-83
2021/12/29 06:42:24;;;;;;;16.07;11.07;;;2.90;99.90;;;;;;5095851;28;20848;-83
2021/12/29 06:44:50;;;;;;;20.83;11.47;;;2.90;99.90;;;;;;5095719;28;20438;-83
2021/12/29 06:47:16;;;;;;;21.30;13.80;;;2.90;99.90;;;;;;5095696;28;20418;-84
2021/12/29 06:49:41;;;;;;;25.87;13.47;;;2.90;99.90;;;;;;5095638;28;20414;-83
2021/12/29 06:52:08;;;;;;;20.27;12.73;;;2.90;99.90;;;;;;5095489;28;20209;-83
2021/12/29 06:54:34;;;;;;;23.23;14.23;;;2.90;99.90;;;;;;5095305;28;20653;-83
2021/12/29 06:57:00;;;;;;;21.50;12.73;;;2.90;99.90;;;;;;5095548;28;20415;-83
2021/12/29 06:59:25;;;;;;;20.10;10.70;;;2.90;99.90;;;;;;5095458;28;20505;-83
2021/12/29 07:01:51;;;;;;;20.17;11.70;;;2.90;99.90;;;;;;5095377;28;20208;-84
2021/12/29 07:04:17;;;;;;;23.60;13.57;;;2.90;99.90;;;;;;5095253;28;20188;-84
2021/12/29 07:06:43;;;;;;;22.53;12.73;;;2.90;99.90;;;;;;5077176;28;20414;-83
2021/12/29 07:09:09;;;;;;;25.40;13.10;;;2.90;99.90;;;;;;5094827;28;20625;-83
2021/12/29 07:11:36;;;;;;;22.30;11.80;;;2.90;99.90;;;;;;5077096;28;20798;-83
2021/12/29 07:14:03;;;;;;;24.47;13.37;;;2.90;99.90;;;;;;5083540;28;20262;-83
2021/12/29 07:16:30;;;;;;;24.37;12.87;;;2.80;99.90;;;;;;5104891;28;20418;-83
2021/12/29 07:18:56;;;;;;;22.00;11.83;;;2.90;99.90;;;;;;5096826;28;20424;-82
2021/12/29 07:21:22;;;;;;;24.63;13.53;;;2.90;99.90;;;;;;5094720;28;21031;-82
2021/12/29 07:23:47;;;;;;;25.20;14.00;;;2.90;99.90;;;;;;5094543;28;20173;-82
2021/12/29 07:26:13;;;;;;;22.73;13.37;;;2.90;99.90;;;;;;5095274;28;20418;-83
2021/12/29 07:28:39;;;;;;;26.90;15.90;;;2.90;99.90;;;;;;5094818;28;20177;-82
2021/12/29 07:31:05;;;;;;;29.73;14.70;;;3.00;99.90;;;;;;5101921;28;20207;-81
2021/12/29 07:33:33;;;;;;;35.13;14.50;;;3.00;99.90;;;;;;5115324;28;20168;-81
2021/12/29 07:35:58;;;;;;;26.90;14.67;;;3.00;99.90;;;;;;5096751;28;20449;-82
2021/12/29 07:38:24;;;;;;;30.70;16.47;;;3.00;99.90;;;;;;5114909;28;20485;-81
2021/12/29 07:40:50;;;;;;;23.93;13.53;;;2.90;99.90;;;;;;5114661;28;20209;-81
2021/12/29 07:43:16;;;;;;;24.57;12.00;;;2.90;99.90;;;;;;5115027;28;20534;-81
2021/12/29 07:45:42;;;;;;;30.77;15.40;;;2.90;99.90;;;;;;5114899;28;20171;-82
2021/12/29 07:48:09;;;;;;;22.30;13.27;;;2.90;99.90;;;;;;5114708;28;20520;-82
2021/12/29 07:50:36;;;;;;;25.83;14.33;;;2.90;99.90;;;;;;5114879;28;20415;-82
2021/12/29 07:53:02;;;;;;;21.13;12.50;;;2.90;99.90;;;;;;5114725;28;20441;-82
2021/12/29 07:55:28;;;;;;;24.50;13.83;;;2.90;99.90;;;;;;5094904;28;20415;-81
2021/12/29 07:57:54;;;;;;;30.67;14.70;;;2.90;99.90;;;;;;5094369;28;20178;-81
2021/12/29 08:00:19;;;;;;;28.87;13.70;;;2.90;99.90;;;;;;5094161;28;20195;-82
2021/12/29 08:02:47;;;;;;;21.77;12.57;;;3.00;99.90;;;;;;5094280;28;20172;-82
2021/12/29 08:05:13;;;;;;;24.40;12.87;;;3.00;99.90;;;;;;5094142;28;20165;-82
2021/12/29 08:07:39;;;;;;;23.87;13.23;;;3.00;99.90;;;;;;5094187;28;20941;-82
2021/12/29 08:10:06;;;;;;;25.50;13.63;;;3.10;99.90;;;;;;5093791;28;20398;-82
2021/12/29 08:12:32;;;;;;;28.93;13.23;;;3.10;99.90;;;;;;5093990;28;20600;-82
2021/12/29 08:14:58;;;;;;;25.53;12.90;;;3.10;99.90;;;;;;5101920;28;20472;-82
2021/12/29 08:17:24;;;;;;;24.20;13.10;;;3.10;99.90;;;;;;5093968;28;20811;-82
2021/12/29 08:19:50;;;;;;;23.50;12.70;;;3.10;99.90;;;;;;5111840;28;20413;-82
2021/12/29 08:22:17;;;;;;;27.30;13.27;;;3.10;99.90;;;;;;5114131;28;20249;-82
2021/12/29 08:24:43;;;;;;;26.13;14.50;;;3.10;99.90;;;;;;5114040;28;20500;-82
2021/12/29 08:27:09;;;;;;;27.97;14.17;;;3.10;99.90;;;;;;5098162;28;20425;-83
2021/12/29 08:29:35;;;;;;;33.97;16.93;;;3.10;99.90;;;;;;5096178;28;20521;-83
2021/12/29 08:32:01;;;;;;;26.73;14.87;;;3.10;99.90;;;;;;5093613;28;20423;-82
2021/12/29 08:34:27;;;;;;;32.77;13.27;;;3.20;99.90;;;;;;5092593;28;20225;-82
2021/12/29 08:36:53;;;;;;;25.30;13.30;;;3.20;99.90;;;;;;5107341;28;20180;-82
2021/12/29 08:39:19;;;;;;;28.17;14.53;;;3.20;99.90;;;;;;5113428;28;20450;-83
2021/12/29 08:41:50;;;;;;;25.03;14.37;;;3.20;99.90;;;;;;5113814;28;20493;-82
2021/12/29 08:44:16;;;;;;;31.07;15.17;;;3.20;99.90;;;;;;5113797;28;20417;-82
2021/12/29 08:46:42;;;;;;;38.27;16.90;;;3.30;99.90;;;;;;5113851;28;20415;-83
2021/12/29 08:49:08;;;;;;;31.40;14.10;;;3.30;99.90;;;;;;5113794;28;20413;-83
2021/12/29 08:51:34;;;;;;;28.00;13.80;;;3.30;99.90;;;;;;5095570;28;20813;-83
2021/12/29 08:53:59;;;;;;;28.67;15.90;;;3.40;99.90;;;;;;5095205;28;20167;-83
2021/12/29 08:56:26;;;;;;;26.23;14.20;;;3.30;99.90;;;;;;5112458;28;20168;-82
2021/12/29 08:58:53;;;;;;;29.90;14.90;;;3.40;99.90;;;;;;5099936;28;20445;-83
2021/12/29 09:01:21;;;;;;;26.60;15.47;;;3.40;99.90;;;;;;5093205;28;20879;-83
2021/12/29 09:03:48;;;;;;;30.67;14.30;;;3.40;99.90;;;;;;5093292;28;20767;-82
2021/12/29 09:06:15;;;;;;;32.33;16.73;;;3.40;99.90;;;;;;5093197;28;20456;-82
2021/12/29 09:08:40;;;;;;;32.23;16.40;;;3.40;99.90;;;;;;5092825;28;20407;-82
2021/12/29 09:11:06;;;;;;;27.33;15.87;;;3.40;99.90;;;;;;5093191;28;20464;-82
2021/12/29 09:13:32;;;;;;;31.50;15.80;;;3.40;99.90;;;;;;5077491;28;20305;-82
2021/12/29 09:15:58;;;;;;;28.23;14.37;;;3.50;99.90;;;;;;5108306;28;20899;-82
2021/12/29 09:18:25;;;;;;;30.60;14.60;;;3.40;99.90;;;;;;5113454;28;20251;-83
2021/12/29 09:20:51;;;;;;;25.80;13.53;;;3.40;99.90;;;;;;5111988;28;20237;-83
2021/12/29 09:23:17;;;;;;;26.43;13.40;;;3.50;99.90;;;;;;5113054;28;20417;-81
2021/12/29 09:25:46;;;;;;;27.20;14.17;;;3.50;99.90;;;;;;5113351;28;20775;-82
2021/12/29 09:28:15;;;;;;;30.50;14.43;;;3.60;99.90;;;;;;5113410;28;20526;-82
2021/12/29 09:30:43;;;;;;;28.13;15.03;;;3.60;99.90;;;;;;5102343;28;20449;-82
2021/12/29 09:33:08;;;;;;;34.20;15.87;;;3.60;99.90;;;;;;5113133;28;20800;-82
2021/12/29 09:35:35;;;;;;;28.73;15.20;;;3.60;99.90;;;;;;5113290;28;20417;-82
2021/12/29 09:38:01;;;;;;;35.77;17.00;;;3.60;99.90;;;;;;5113114;28;20257;-82
2021/12/29 09:40:27;;;;;;;34.40;18.73;;;3.60;99.90;;;;;;5112880;28;20457;-82
2021/12/29 09:42:54;;;;;;;33.40;17.23;;;3.60;99.90;;;;;;5113340;28;20936;-83
2021/12/29 09:45:20;;;;;;;31.60;16.90;;;3.70;99.90;;;;;;5114138;28;20334;-82
2021/12/29 09:47:46;;;;;;;31.40;17.27;;;3.60;99.90;;;;;;5116859;28;20486;-83
2021/12/29 09:50:14;;;;;;;40.70;17.07;;;3.60;99.90;;;;;;5116466;28;20516;-82
2021/12/29 09:52:40;;;;;;;36.90;18.63;;;3.70;99.90;;;;;;5116614;28;20448;-83
2021/12/29 09:55:09;;;;;;;26.53;15.30;;;3.70;99.90;;;;;;5116290;28;20412;-82
2021/12/29 09:57:38;;;;;;;43.70;18.27;;;3.70;99.90;;;;;;5116773;28;20477;-82
2021/12/29 10:00:18;;;;;;;31.33;15.90;;;3.70;99.90;;;;;;5113584;28;20410;-82
2021/12/29 10:02:44;;;;;;;36.10;15.90;;;3.70;99.90;;;;;;5113645;28;20397;-83
2021/12/29 10:05:10;;;;;;;32.63;16.20;;;3.70;99.90;;;;;;5098043;28;20457;-82
2021/12/29 10:07:35;;;;;;;33.87;16.40;;;3.70;99.90;;;;;;5116454;28;20168;-83
2021/12/29 10:10:19;;;;;;;26.03;14.63;;;3.70;99.90;;;;;;5115892;28;20748;-83
2021/12/29 10:12:45;;;;;;;34.90;15.60;;;3.70;99.90;;;;;;5116311;28;20624;-83
2021/12/29 10:15:11;;;;;;;28.13;16.63;;;3.70;99.90;;;;;;5114269;28;20526;-82
2021/12/29 10:17:37;;;;;;;29.80;16.10;;;3.70;99.90;;;;;;5097742;28;20496;-82
2021/12/29 10:20:11;;;;;;;29.67;14.40;;;3.70;99.90;;;;;;5097967;28;20417;-83
2021/12/29 10:22:36;;;;;;;31.70;14.97;;;3.80;99.90;;;;;;5116230;28;20425;-83
2021/12/29 10:25:09;;;;;;;35.60;17.30;;;3.80;99.90;;;;;;5115695;28;20405;-82
2021/12/29 10:27:36;;;;;;;29.20;15.30;;;3.80;99.90;;;;;;5097838;28;20893;-82
2021/12/29 10:30:26;;;;;;;25.17;14.17;;;3.80;99.90;;;;;;5115997;28;20443;-81
2021/12/29 10:32:55;;;;;;;27.60;15.20;;;3.90;99.90;;;;;;5106423;28;20414;-81
2021/12/29 10:35:23;;;;;;;31.00;16.70;;;3.90;99.90;;;;;;5115832;28;20418;-82
2021/12/29 10:37:51;;;;;;;30.43;15.50;;;3.90;99.90;;;;;;5115593;28;20524;-82
2021/12/29 10:40:30;;;;;;;31.30;17.27;;;3.90;99.90;;;;;;5097130;28;20418;-82
2021/12/29 10:42:59;;;;;;;27.43;14.60;;;4.00;99.90;;;;;;5114323;28;20940;-82
2021/12/29 10:45:39;;;;;;;33.00;16.50;;;4.00;99.90;;;;;;5115520;28;20787;-82
2021/12/29 10:48:26;;;;;;;28.63;16.00;;;4.00;99.90;;;;;;5115467;28;20412;-82
2021/12/29 10:51:06;;;;;;;30.90;15.93;;;4.10;99.90;;;;;;5113519;28;20405;-81
2021/12/29 10:53:35;;;;;;;34.17;17.83;;;4.10;99.90;;;;;;5112977;28;20420;-82
2021/12/29 10:56:02;;;;;;;26.37;17.93;;;4.10;99.90;;;;;;5096858;28;20417;-82
2021/12/29 10:58:30;;;;;;;35.20;18.70;;;4.10;99.90;;;;;;5114236;28;21195;-82
2021/12/29 11:01:09;;;;;;;34.17;16.80;;;4.10;99.90;;;;;;5115212;28;20825;-81
2021/12/29 11:03:42;;;;;;;35.83;18.07;;;4.20;99.90;;;;;;5094493;28;20435;-82
2021/12/29 11:06:12;;;;;;;32.37;18.83;;;4.10;99.90;;;;;;5115308;28;20785;-82
2021/12/29 11:09:04;;;;;;;41.57;18.83;;;4.20;99.90;;;;;;5094395;28;20967;-81
2021/12/29 11:11:36;;;;;;;38.40;18.80;;;4.10;99.90;;;;;;5112467;28;21032;-82
2021/12/29 11:14:17;;;;;;;36.67;18.60;;;4.20;99.90;;;;;;5109652;28;20788;-82
2021/12/29 11:16:45;;;;;;;30.80;17.60;;;4.20;99.90;;;;;;5095057;28;20406;-82
2021/12/29 11:19:11;;;;;;;32.70;16.20;;;4.20;99.90;;;;;;5113544;28;20971;-82
2021/12/29 11:21:40;;;;;;;29.20;16.87;;;4.30;99.90;;;;;;5114926;28;20976;-83
2021/12/29 11:24:15;;;;;;;37.20;18.50;;;4.20;99.90;;;;;;5115050;28;20405;-81
2021/12/29 11:26:42;;;;;;;37.47;17.30;;;4.20;99.90;;;;;;5114961;28;20421;-81
2021/12/29 11:29:12;;;;;;;34.50;16.40;;;4.20;99.90;;;;;;5114789;28;20954;-81
2021/12/29 11:31:43;;;;;;;32.77;17.20;;;4.30;99.90;;;;;;5112285;28;20453;-81
2021/12/29 11:34:16;;;;;;;30.40;16.77;;;4.30;99.90;;;;;;5112922;28;20766;-82
2021/12/29 11:36:43;;;;;;;32.50;16.60;;;4.30;99.90;;;;;;5111951;28;20448;-81
2021/12/29 11:39:09;;;;;;;36.40;18.17;;;4.40;99.90;;;;;;5113933;28;20453;-82
2021/12/29 11:41:35;;;;;;;39.70;18.83;;;4.30;99.90;;;;;;5114392;28;20557;-81
2021/12/29 11:44:00;;;;;;;32.87;16.73;;;4.40;99.90;;;;;;5114508;28;20172;-82
2021/12/29 11:46:26;;;;;;;32.87;16.13;;;4.30;99.90;;;;;;5114456;28;20172;-82
2021/12/29 11:48:53;;;;;;;31.40;16.30;;;4.30;99.90;;;;;;5114142;28;20417;-81
2021/12/29 11:51:36;;;;;;;28.30;18.53;;;4.30;99.90;;;;;;5114721;28;20739;-82
2021/12/29 11:54:14;;;;;;;31.93;16.40;;;4.40;99.90;;;;;;5113227;28;20410;-82
2021/12/29 11:56:42;;;;;;;29.37;16.40;;;4.40;99.90;;;;;;5113356;28;20405;-81
2021/12/29 11:59:09;;;;;;;31.63;17.30;;;4.40;99.90;;;;;;5114035;28;20409;-82
2021/12/29 12:01:36;;;;;;;32.37;15.57;;;4.40;99.90;;;;;;5093669;28;20518;-82
2021/12/29 12:04:05;;;;;;;27.37;16.80;;;4.40;99.90;;;;;;5093697;28;20423;-82
2021/12/29 12:06:40;;;;;;;32.87;17.40;;;4.40;99.90;;;;;;5097511;28;20933;-81
2021/12/29 12:09:22;;;;;;;29.10;16.70;;;4.40;99.90;;;;;;5103777;28;20452;-81
2021/12/29 12:11:48;;;;;;;32.80;16.20;;;4.40;99.90;;;;;;5098348;28;20505;-81
2021/12/29 12:14:30;;;;;;;36.20;18.47;;;4.40;99.90;;;;;;5111511;28;20574;-80
2021/12/29 12:17:05;;;;;;;38.13;18.40;;;4.40;99.90;;;;;;5105544;28;20178;-80
2021/12/29 12:19:32;;;;;;;31.87;18.33;;;4.40;99.90;;;;;;5092819;28;20407;-80
2021/12/29 12:22:07;;;;;;;29.30;16.00;;;4.40;99.90;;;;;;5092614;28;20463;-80
2021/12/29 12:24:35;;;;;;;31.50;15.50;;;4.50;99.90;;;;;;5092431;28;20491;-81
2021/12/29 12:27:05;;;;;;;31.20;17.50;;;4.50;99.90;;;;;;5092536;28;20411;-79
2021/12/29 12:29:37;;;;;;;32.63;18.20;;;4.40;99.90;;;;;;5092655;28;20426;-80
2021/12/29 12:32:18;;;;;;;29.03;16.80;;;4.40;99.90;;;;;;5111412;28;20474;-80
2021/12/29 12:34:57;;;;;;;43.40;19.57;;;4.40;99.90;;;;;;5112897;28;20409;-80
2021/12/29 12:37:35;;;;;;;29.70;15.00;;;4.30;99.90;;;;;;5112555;28;20445;-80
2021/12/29 12:40:08;;;;;;;30.37;17.20;;;4.40;99.90;;;;;;5112207;28;20406;-80
2021/12/29 12:42:34;;;;;;;38.23;18.30;;;4.40;99.90;;;;;;5111489;28;20425;-80
2021/12/29 12:45:02;;;;;;;34.20;19.27;;;4.30;99.90;;;;;;5112703;28;20496;-81